Time;durP1;ratioP1;P1;durP2;ratioP2;P2;SDS_P1;SDS_P2;PMS_P1;PMS_P2;Temp;Humidity;BMP_temperature;BMP_pressure;BME280_temperature;BME280_humidity;BME280_pressure;Samples;Min_cycle;Max_cycle;Signal;HPM_P1;HPM_P2
2023/06/11 00:02:11;;;;;;;12.52;8.00;;;17.60;99.90;;;;;;5036442;28;20043;-85
2023/06/11 00:04:37;;;;;;;13.25;8.00;;;17.60;99.90;;;;;;5042973;28;20483;-86
2023/06/11 00:07:05;;;;;;;12.18;7.00;;;17.60;99.90;;;;;;5040893;28;20044;-86
2023/06/11 00:09:31;;;;;;;14.38;8.07;;;17.60;99.90;;;;;;5043192;28;20064;-86
2023/06/11 00:12:00;;;;;;;9.52;7.20;;;17.60;99.90;;;;;;5039247;28;20044;-85
2023/06/11 00:14:26;;;;;;;10.55;7.10;;;17.60;99.90;;;;;;5044841;28;21339;-85
2023/06/11 00:16:52;;;;;;;12.30;8.05;;;17.60;99.90;;;;;;5085714;28;20048;-85
2023/06/11 00:19:19;;;;;;;13.95;8.05;;;17.60;99.90;;;;;;5038890;28;20033;-85
2023/06/11 00:21:45;;;;;;;12.82;7.75;;;17.60;99.90;;;;;;5041192;28;20036;-85
2023/06/11 00:24:12;;;;;;;15.93;7.93;;;17.60;99.90;;;;;;5040888;28;20090;-86
2023/06/11 00:26:38;;;;;;;12.75;7.93;;;17.60;99.90;;;;;;5040095;28;20044;-85
2023/06/11 00:29:05;;;;;;;11.27;7.75;;;17.60;99.90;;;;;;5039124;28;20044;-86
2023/06/11 00:31:30;;;;;;;9.15;7.90;;;17.60;99.90;;;;;;5040081;28;20036;-86
2023/06/11 00:33:56;;;;;;;11.93;8.00;;;17.60;99.90;;;;;;5038402;28;20040;-85
2023/06/11 00:36:25;;;;;;;9.98;7.82;;;17.50;99.90;;;;;;5050325;28;20029;-85
2023/06/11 00:38:54;;;;;;;10.70;7.97;;;17.50;99.90;;;;;;5039192;28;20048;-84
2023/06/11 00:41:29;;;;;;;12.07;7.90;;;17.60;99.90;;;;;;5054866;28;20045;-84
2023/06/11 00:43:58;;;;;;;9.10;7.43;;;17.60;99.90;;;;;;5041152;28;20095;-85
2023/06/11 00:46:24;;;;;;;12.35;8.07;;;17.40;99.90;;;;;;5051857;28;20044;-85
2023/06/11 00:48:50;;;;;;;10.18;8.13;;;17.30;99.90;;;;;;5051496;28;20371;-85
2023/06/11 00:51:20;;;;;;;10.80;7.80;;;17.30;99.90;;;;;;5039824;28;20045;-86
2023/06/11 00:53:47;;;;;;;12.43;8.07;;;17.30;99.90;;;;;;5066416;28;20479;-85
2023/06/11 00:56:17;;;;;;;10.10;7.78;;;17.20;99.90;;;;;;5036145;28;20037;-85
2023/06/11 00:58:47;;;;;;;9.25;7.78;;;17.30;99.90;;;;;;5049887;28;20119;-85
2023/06/11 01:01:17;;;;;;;7.88;7.07;;;17.20;99.90;;;;;;5034481;28;20125;-86
2023/06/11 01:03:52;;;;;;;9.35;7.47;;;17.30;99.90;;;;;;5034459;28;20044;-84
2023/06/11 01:06:21;;;;;;;11.65;8.68;;;17.20;99.90;;;;;;5048892;28;20049;-84
2023/06/11 01:08:52;;;;;;;9.80;8.20;;;17.20;99.90;;;;;;5036804;28;20115;-86
2023/06/11 01:11:21;;;;;;;11.57;8.15;;;17.20;99.90;;;;;;5068581;28;20044;-85
2023/06/11 01:13:51;;;;;;;11.65;7.75;;;17.20;99.90;;;;;;5036299;28;20048;-85
2023/06/11 01:16:32;;;;;;;14.40;8.85;;;17.20;99.90;;;;;;5037954;28;20052;-85
2023/06/11 01:19:43;;;;;;;9.10;8.20;;;17.20;99.90;;;;;;5052373;28;20417;-86
2023/06/11 01:22:21;;;;;;;9.07;8.18;;;17.10;99.90;;;;;;5040984;28;20488;-85
2023/06/11 01:24:53;;;;;;;12.32;8.25;;;17.00;99.90;;;;;;5049059;28;20531;-85
2023/06/11 01:27:27;;;;;;;9.43;8.52;;;17.10;99.90;;;;;;5034890;28;20052;-85
2023/06/11 01:29:55;;;;;;;12.00;8.88;;;17.00;99.90;;;;;;5052015;28;20370;-86
2023/06/11 01:32:23;;;;;;;9.93;7.95;;;17.00;99.90;;;;;;5038306;28;20127;-85
2023/06/11 01:34:49;;;;;;;10.20;8.15;;;17.00;99.90;;;;;;5036491;28;20032;-85
2023/06/11 01:37:18;;;;;;;10.07;8.60;;;17.00;99.90;;;;;;5052452;28;20360;-85
2023/06/11 01:39:45;;;;;;;11.38;8.35;;;17.00;99.90;;;;;;5032878;28;20858;-85
2023/06/11 01:42:12;;;;;;;10.50;8.68;;;16.90;99.90;;;;;;5038965;28;20044;-86
2023/06/11 01:44:37;;;;;;;11.80;8.93;;;16.90;99.90;;;;;;5039315;28;20261;-85
2023/06/11 01:47:03;;;;;;;9.45;8.52;;;16.80;99.90;;;;;;5039802;28;20041;-86
2023/06/11 01:49:29;;;;;;;9.88;8.88;;;16.80;99.90;;;;;;5052008;28;20051;-85
2023/06/11 01:51:54;;;;;;;10.38;8.50;;;16.80;99.90;;;;;;5036720;28;20049;-86
2023/06/11 01:54:21;;;;;;;11.30;8.65;;;16.80;99.90;;;;;;5047517;28;20037;-87
2023/06/11 01:56:47;;;;;;;10.18;8.80;;;16.80;99.90;;;;;;5032790;28;20041;-86
2023/06/11 01:59:12;;;;;;;12.55;9.50;;;16.80;99.90;;;;;;5039039;28;20033;-86
2023/06/11 02:01:40;;;;;;;13.82;9.38;;;16.80;99.90;;;;;;5035118;28;20384;-85
2023/06/11 02:04:06;;;;;;;12.93;9.38;;;16.80;99.90;;;;;;5071967;28;20033;-86
2023/06/11 02:06:32;;;;;;;10.82;9.40;;;16.80;99.90;;;;;;5059550;28;20526;-85
2023/06/11 02:08:57;;;;;;;13.18;9.55;;;16.80;99.90;;;;;;5037542;28;20040;-85
2023/06/11 02:11:26;;;;;;;9.90;9.00;;;16.80;99.90;;;;;;5032487;28;20090;-85
2023/06/11 02:13:51;;;;;;;12.70;9.02;;;16.80;99.90;;;;;;5035190;28;20045;-85
2023/06/11 02:16:20;;;;;;;11.30;9.27;;;16.80;99.90;;;;;;5066626;28;20037;-86
2023/06/11 02:18:45;;;;;;;11.38;9.45;;;16.80;99.90;;;;;;5051789;28;20495;-85
2023/06/11 02:21:11;;;;;;;11.88;9.38;;;16.80;99.90;;;;;;5038011;28;20313;-85
2023/06/11 02:23:36;;;;;;;12.07;9.65;;;16.80;99.90;;;;;;5031818;28;20176;-85
2023/06/11 02:26:05;;;;;;;11.55;10.07;;;16.80;99.90;;;;;;5049709;28;20395;-85
2023/06/11 02:28:30;;;;;;;13.35;10.05;;;16.80;99.90;;;;;;5034428;28;20052;-85
2023/06/11 02:30:59;;;;;;;12.52;9.88;;;16.80;99.90;;;;;;5054609;28;20040;-85
2023/06/11 02:33:24;;;;;;;14.60;10.55;;;16.70;99.90;;;;;;5052805;28;20501;-85
2023/06/11 02:35:50;;;;;;;12.30;10.25;;;16.80;99.90;;;;;;5036521;28;20033;-86
2023/06/11 02:38:16;;;;;;;11.25;10.05;;;16.70;99.90;;;;;;5033348;28;20124;-85
2023/06/11 02:40:44;;;;;;;11.57;10.38;;;16.70;99.90;;;;;;5033798;28;20044;-85
2023/06/11 02:43:10;;;;;;;15.60;9.95;;;16.70;99.90;;;;;;5050976;28;20036;-85
2023/06/11 02:45:36;;;;;;;11.88;9.77;;;16.70;99.90;;;;;;5040136;28;20345;-85
2023/06/11 02:48:02;;;;;;;11.00;9.80;;;16.60;99.90;;;;;;5036408;28;20526;-85
2023/06/11 02:50:27;;;;;;;12.40;10.35;;;16.60;99.90;;;;;;5050639;28;20152;-86
2023/06/11 02:52:53;;;;;;;12.02;10.73;;;16.60;99.90;;;;;;5049162;28;20041;-86
2023/06/11 02:55:18;;;;;;;11.82;9.80;;;16.50;99.90;;;;;;5031451;28;20127;-86
2023/06/11 02:57:44;;;;;;;11.98;10.15;;;16.50;99.90;;;;;;5037243;28;20058;-87
2023/06/11 03:00:10;;;;;;;11.25;10.15;;;16.50;99.90;;;;;;5052199;28;20044;-85
2023/06/11 03:02:36;;;;;;;12.00;10.05;;;16.50;99.90;;;;;;5032050;28;20101;-85
2023/06/11 03:05:02;;;;;;;12.52;11.10;;;16.50;99.90;;;;;;5038316;28;20045;-85
2023/06/11 03:07:28;;;;;;;11.68;10.38;;;16.50;99.90;;;;;;5036167;28;20047;-86
2023/06/11 03:09:54;;;;;;;12.20;11.00;;;16.50;99.90;;;;;;5032469;28;20451;-85
2023/06/11 03:12:20;;;;;;;11.73;10.52;;;16.50;99.90;;;;;;5037988;28;20041;-85
2023/06/11 03:14:46;;;;;;;12.80;10.23;;;16.50;99.90;;;;;;5043288;28;20040;-85
2023/06/11 03:17:11;;;;;;;11.85;10.63;;;16.50;99.90;;;;;;5036895;28;20510;-85
2023/06/11 03:19:37;;;;;;;12.65;10.38;;;16.50;99.90;;;;;;5042295;28;20044;-85
2023/06/11 03:22:05;;;;;;;11.50;10.40;;;16.50;99.90;;;;;;5038972;28;20039;-85
2023/06/11 03:24:31;;;;;;;11.48;10.30;;;16.50;99.90;;;;;;5045814;28;20305;-85
2023/06/11 03:26:57;;;;;;;11.88;10.68;;;16.50;99.90;;;;;;5055077;28;20636;-85
2023/06/11 03:29:22;;;;;;;12.18;11.00;;;16.50;99.90;;;;;;5041232;28;20479;-86
2023/06/11 03:31:48;;;;;;;14.05;10.98;;;16.60;99.90;;;;;;5039794;28;20036;-85
2023/06/11 03:34:14;;;;;;;15.85;10.90;;;16.60;99.90;;;;;;5052431;28;20041;-86
2023/06/11 03:36:39;;;;;;;13.13;10.35;;;16.60;99.90;;;;;;5043135;28;20058;-85
2023/06/11 03:39:05;;;;;;;13.65;11.05;;;16.60;99.90;;;;;;5042202;28;20090;-85
2023/06/11 03:41:30;;;;;;;13.88;10.85;;;16.60;99.90;;;;;;5042187;28;20040;-86
2023/06/11 03:43:56;;;;;;;15.65;11.10;;;16.60;99.90;;;;;;5041424;28;20169;-86
2023/06/11 03:46:23;;;;;;;12.13;10.93;;;16.70;99.90;;;;;;5042982;28;20602;-85
2023/06/11 03:48:48;;;;;;;12.52;10.73;;;16.70;99.90;;;;;;5043291;28;20384;-86
2023/06/11 03:51:15;;;;;;;14.45;11.05;;;16.80;99.90;;;;;;5040655;28;20131;-86
2023/06/11 03:53:41;;;;;;;12.10;10.80;;;16.90;99.90;;;;;;5040960;28;20055;-85
2023/06/11 03:56:07;;;;;;;14.50;10.63;;;16.90;99.90;;;;;;5056309;28;20040;-86
2023/06/11 03:58:32;;;;;;;12.07;10.27;;;17.00;99.90;;;;;;5037480;28;20045;-85
2023/06/11 04:00:58;;;;;;;13.00;10.40;;;17.00;99.90;;;;;;5039107;28;20033;-85
2023/06/11 04:03:24;;;;;;;12.02;10.65;;;17.10;99.90;;;;;;5039768;28;20090;-85
2023/06/11 04:05:50;;;;;;;12.43;11.07;;;17.10;99.90;;;;;;5044148;28;20044;-85
2023/06/11 04:08:16;;;;;;;12.85;11.00;;;17.20;99.90;;;;;;5041310;28;20067;-84
2023/06/11 04:10:43;;;;;;;13.07;10.60;;;17.30;99.90;;;;;;5041062;28;20047;-84
2023/06/11 04:13:09;;;;;;;11.57;10.38;;;17.30;99.90;;;;;;5039925;28;20451;-85
2023/06/11 04:15:34;;;;;;;14.63;11.15;;;17.40;99.90;;;;;;5042921;28;20037;-85
2023/06/11 04:18:00;;;;;;;11.32;10.13;;;17.50;99.90;;;;;;5041959;28;20716;-85
2023/06/11 04:20:26;;;;;;;12.70;10.68;;;17.50;99.90;;;;;;5053412;28;20074;-85
2023/06/11 04:22:55;;;;;;;13.23;10.68;;;17.60;99.90;;;;;;5039173;28;20525;-85
2023/06/11 04:25:20;;;;;;;11.55;10.35;;;17.60;99.90;;;;;;5056305;28;20033;-85
2023/06/11 04:27:49;;;;;;;12.32;10.88;;;17.80;99.90;;;;;;5041442;28;20063;-86
2023/06/11 04:30:15;;;;;;;14.90;10.77;;;17.80;99.90;;;;;;5040096;28;20049;-85
2023/06/11 04:32:41;;;;;;;14.35;11.40;;;17.90;99.90;;;;;;5039570;28;20051;-84
2023/06/11 04:35:10;;;;;;;12.05;10.63;;;18.00;99.90;;;;;;5038248;28;20756;-86
2023/06/11 04:37:40;;;;;;;12.52;11.23;;;18.00;99.90;;;;;;5053419;28;20037;-84
2023/06/11 04:40:09;;;;;;;12.60;11.25;;;18.10;99.90;;;;;;5039871;28;20142;-86
2023/06/11 04:42:40;;;;;;;13.73;11.05;;;18.10;99.90;;;;;;5023154;28;20051;-85
2023/06/11 04:45:10;;;;;;;12.23;10.93;;;18.10;99.90;;;;;;5040073;28;20491;-85
2023/06/11 04:47:40;;;;;;;12.38;11.18;;;18.30;99.90;;;;;;5054426;28;20126;-85
2023/06/11 04:50:06;;;;;;;12.25;11.05;;;18.30;99.90;;;;;;5054609;28;20040;-85
2023/06/11 04:52:43;;;;;;;11.63;10.32;;;18.40;99.90;;;;;;5036459;28;20036;-86
2023/06/11 04:55:16;;;;;;;12.75;10.73;;;18.40;99.90;;;;;;5037131;28;20117;-85
2023/06/11 04:57:42;;;;;;;13.32;11.30;;;18.60;99.90;;;;;;5041433;28;20064;-86
2023/06/11 05:00:10;;;;;;;14.98;10.93;;;18.60;99.90;;;;;;5040340;28;20094;-85
2023/06/11 05:02:43;;;;;;;13.20;11.10;;;18.70;99.90;;;;;;5033105;28;20028;-84
2023/06/11 05:05:09;;;;;;;13.63;10.93;;;18.70;99.90;;;;;;5039071;28;20043;-85
2023/06/11 05:07:35;;;;;;;11.70;10.50;;;18.70;99.90;;;;;;5051338;28;20037;-84
2023/06/11 05:10:00;;;;;;;12.52;10.98;;;18.80;99.90;;;;;;5058571;28;20094;-84
2023/06/11 05:12:26;;;;;;;12.38;11.07;;;18.80;99.90;;;;;;5035860;28;20040;-84
2023/06/11 05:14:55;;;;;;;11.45;10.25;;;18.90;99.90;;;;;;5039615;28;20212;-85
2023/06/11 05:17:24;;;;;;;12.10;10.85;;;19.10;99.90;;;;;;5039080;28;20036;-85
2023/06/11 05:19:51;;;;;;;16.40;10.98;;;19.10;99.90;;;;;;5037310;28;20102;-85
2023/06/11 05:22:16;;;;;;;16.15;10.43;;;19.10;99.90;;;;;;5054690;28;20037;-84
2023/06/11 05:24:43;;;;;;;15.48;11.60;;;19.20;99.90;;;;;;5039314;28;20045;-85
2023/06/11 05:27:11;;;;;;;13.95;11.27;;;19.30;99.90;;;;;;5037024;28;20048;-85
2023/06/11 05:29:37;;;;;;;14.52;11.60;;;19.30;99.90;;;;;;5056806;28;20568;-85
2023/06/11 05:32:05;;;;;;;12.38;10.88;;;19.40;99.90;;;;;;5037975;28;20048;-85
2023/06/11 05:34:33;;;;;;;11.82;10.63;;;19.50;99.90;;;;;;5037447;28;20050;-84
2023/06/11 05:36:58;;;;;;;12.38;10.77;;;19.60;99.90;;;;;;5047135;28;20044;-85
2023/06/11 05:39:24;;;;;;;13.38;11.20;;;19.60;99.90;;;;;;5037066;28;20492;-85
2023/06/11 05:41:49;;;;;;;17.85;12.00;;;19.70;99.90;;;;;;5030149;28;20041;-84
2023/06/11 05:44:16;;;;;;;12.13;10.70;;;19.70;99.90;;;;;;5051840;28;20354;-85
2023/06/11 05:46:41;;;;;;;12.57;10.63;;;19.80;99.90;;;;;;5058164;28;20040;-86
2023/06/11 05:49:07;;;;;;;14.05;10.70;;;19.90;99.90;;;;;;5035471;28;20040;-84
2023/06/11 05:51:33;;;;;;;14.23;10.52;;;20.10;99.90;;;;;;5038818;28;20044;-84
2023/06/11 05:54:01;;;;;;;12.88;11.07;;;20.10;99.90;;;;;;5051805;28;20045;-84
2023/06/11 05:56:30;;;;;;;11.90;10.63;;;20.20;99.90;;;;;;5038136;28;20138;-85
2023/06/11 05:58:58;;;;;;;11.93;10.38;;;20.20;99.90;;;;;;5053623;28;20036;-85
2023/06/11 06:01:24;;;;;;;14.40;10.75;;;20.30;99.90;;;;;;5052509;28;20356;-85
2023/06/11 06:03:49;;;;;;;14.82;11.73;;;20.40;99.90;;;;;;5063310;28;20032;-85
2023/06/11 06:06:15;;;;;;;13.88;10.50;;;20.30;99.90;;;;;;5049920;28;20070;-84
2023/06/11 06:08:41;;;;;;;13.35;10.75;;;20.50;99.90;;;;;;5051272;28;20045;-84
2023/06/11 06:11:07;;;;;;;12.63;10.98;;;20.60;99.90;;;;;;5036259;28;20476;-85
2023/06/11 06:13:32;;;;;;;11.63;10.52;;;20.50;99.90;;;;;;5035758;28;20166;-84
2023/06/11 06:16:04;;;;;;;14.07;10.73;;;20.70;99.90;;;;;;5036914;28;20048;-85
2023/06/11 06:18:32;;;;;;;15.57;11.18;;;20.80;99.90;;;;;;5084156;28;20078;-85
2023/06/11 06:20:57;;;;;;;11.75;10.40;;;20.90;99.90;;;;;;5055115;28;20040;-85
2023/06/11 06:23:26;;;;;;;16.20;10.50;;;21.00;99.90;;;;;;5035207;28;20032;-85
2023/06/11 06:25:52;;;;;;;12.10;10.00;;;21.20;99.90;;;;;;5065795;28;20132;-84
2023/06/11 06:28:18;;;;;;;11.32;10.18;;;21.20;99.90;;;;;;5068852;28;20119;-84
2023/06/11 06:30:43;;;;;;;12.85;11.10;;;21.30;99.90;;;;;;5034722;28;20487;-84
2023/06/11 06:33:10;;;;;;;13.63;10.40;;;21.50;99.90;;;;;;5047578;28;20338;-85
2023/06/11 06:35:35;;;;;;;13.98;10.10;;;21.50;99.90;;;;;;5034345;28;20063;-85
2023/06/11 06:38:04;;;;;;;11.50;10.30;;;21.40;99.90;;;;;;5038663;28;20037;-84
2023/06/11 06:40:30;;;;;;;12.77;10.43;;;21.70;99.90;;;;;;5040140;28;20041;-84
2023/06/11 06:42:59;;;;;;;14.13;10.35;;;21.80;99.90;;;;;;5056435;28;20139;-85
2023/06/11 06:45:25;;;;;;;12.48;10.48;;;21.80;99.90;;;;;;5060885;28;20505;-85
2023/06/11 06:47:50;;;;;;;15.35;10.13;;;21.80;99.90;;;;;;5043111;28;20075;-85
2023/06/11 06:50:16;;;;;;;13.02;10.48;;;22.00;99.90;;;;;;5047570;28;20129;-85
2023/06/11 06:52:42;;;;;;;12.40;10.95;;;22.00;99.90;;;;;;5058291;28;20127;-84
2023/06/11 06:55:10;;;;;;;13.30;10.80;;;22.20;99.90;;;;;;5043093;28;20132;-84
2023/06/11 06:57:36;;;;;;;12.50;10.15;;;22.20;99.90;;;;;;5039876;28;20040;-84
2023/06/11 07:00:04;;;;;;;11.20;10.10;;;22.30;99.90;;;;;;5061119;28;20028;-85
2023/06/11 07:02:30;;;;;;;11.50;10.30;;;22.30;99.90;;;;;;5059369;28;20476;-84
2023/06/11 07:04:55;;;;;;;13.75;10.63;;;22.50;99.90;;;;;;5042596;28;20119;-85
2023/06/11 07:07:24;;;;;;;12.20;10.63;;;22.50;99.90;;;;;;5058501;28;20258;-86
2023/06/11 07:09:50;;;;;;;11.25;9.77;;;22.70;99.90;;;;;;5058457;28;20509;-84
2023/06/11 07:12:15;;;;;;;12.75;10.25;;;22.70;99.90;;;;;;5044824;28;20088;-84
2023/06/11 07:14:41;;;;;;;16.17;9.50;;;22.80;99.90;;;;;;5045965;28;20105;-85
2023/06/11 07:17:07;;;;;;;11.50;9.85;;;23.00;99.90;;;;;;5045212;28;20120;-84
2023/06/11 07:19:32;;;;;;;10.82;9.80;;;23.10;99.90;;;;;;5060713;28;20055;-84
2023/06/11 07:21:58;;;;;;;14.38;10.05;;;23.10;99.90;;;;;;5047597;28;20038;-85
2023/06/11 07:24:23;;;;;;;12.75;9.30;;;23.30;99.90;;;;;;5062622;28;20421;-84
2023/06/11 07:26:49;;;;;;;13.43;9.88;;;23.20;99.90;;;;;;5045771;28;20051;-84
2023/06/11 07:29:15;;;;;;;18.95;9.63;;;23.30;99.90;;;;;;5063694;28;20067;-85
2023/06/11 07:31:40;;;;;;;12.07;9.55;;;23.40;99.90;;;;;;5058638;28;20070;-85
2023/06/11 07:34:06;;;;;;;11.10;9.95;;;23.50;99.90;;;;;;5063876;28;20044;-84
2023/06/11 07:36:32;;;;;;;15.80;10.00;;;23.60;99.90;;;;;;5063276;28;20359;-84
2023/06/11 07:38:57;;;;;;;13.25;9.68;;;23.70;99.90;;;;;;5062132;28;20056;-85
2023/06/11 07:41:23;;;;;;;10.52;9.43;;;23.80;99.90;;;;;;5068334;28;20024;-85
2023/06/11 07:43:48;;;;;;;9.93;8.60;;;23.80;99.90;;;;;;5046668;28;20035;-85
2023/06/11 07:46:15;;;;;;;10.98;9.40;;;24.10;99.90;;;;;;5065908;28;20135;-84
2023/06/11 07:48:41;;;;;;;11.38;9.20;;;24.10;99.90;;;;;;5047702;28;20034;-84
2023/06/11 07:51:11;;;;;;;10.63;8.77;;;24.10;99.90;;;;;;5048268;28;20459;-84
2023/06/11 07:53:37;;;;;;;11.48;8.93;;;24.20;99.90;;;;;;5045227;28;20043;-85
2023/06/11 07:56:03;;;;;;;11.48;8.82;;;24.30;99.90;;;;;;5043567;28;20044;-85
2023/06/11 07:58:29;;;;;;;11.27;8.95;;;24.50;99.90;;;;;;5046616;28;20058;-85
2023/06/11 08:00:54;;;;;;;10.52;9.13;;;24.30;35.00;;;;;;5045802;28;20379;-85
2023/06/11 08:03:21;;;;;;;11.20;8.70;;;24.40;99.90;;;;;;5065630;28;20047;-85
2023/06/11 08:05:46;;;;;;;10.15;8.82;;;24.80;99.90;;;;;;5045293;28;20040;-84
2023/06/11 08:08:12;;;;;;;10.35;9.25;;;24.70;99.90;;;;;;5045920;28;20218;-84
2023/06/11 08:10:37;;;;;;;9.95;9.05;;;24.80;99.90;;;;;;5062335;28;20036;-85
2023/06/11 08:13:04;;;;;;;11.57;8.60;;;25.10;1.00;;;;;;5047024;28;20305;-84
2023/06/11 08:15:33;;;;;;;16.58;9.45;;;25.10;1.00;;;;;;5039372;28;20044;-85
2023/06/11 08:17:59;;;;;;;12.48;8.45;;;25.10;99.90;;;;;;5042260;28;20047;-86
2023/06/11 08:20:24;;;;;;;12.60;8.95;;;25.40;1.00;;;;;;5044894;28;20362;-85
2023/06/11 08:22:53;;;;;;;9.57;8.57;;;25.50;99.90;;;;;;5051071;28;20035;-84
2023/06/11 08:25:18;;;;;;;10.13;9.13;;;25.40;1.00;;;;;;5059222;28;20075;-84
2023/06/11 08:27:44;;;;;;;12.15;9.13;;;25.60;99.90;;;;;;5037118;28;20859;-85
2023/06/11 08:30:10;;;;;;;9.95;8.75;;;25.50;99.90;;;;;;5076257;28;20056;-84
2023/06/11 08:32:36;;;;;;;10.98;8.73;;;25.60;99.90;;;;;;5059332;28;20081;-85
2023/06/11 08:35:01;;;;;;;10.80;9.02;;;25.80;1.00;;;;;;5059651;28;20495;-85
2023/06/11 08:37:27;;;;;;;13.02;9.20;;;25.90;99.90;;;;;;5043304;28;20358;-85
2023/06/11 08:39:53;;;;;;;11.02;9.20;;;26.00;99.90;;;;;;5045773;28;20043;-85
2023/06/11 08:42:18;;;;;;;11.07;8.90;;;26.20;99.90;;;;;;5045043;28;20524;-86
2023/06/11 08:44:45;;;;;;;12.57;8.68;;;26.00;99.90;;;;;;5047238;28;20225;-86
2023/06/11 08:47:12;;;;;;;9.65;8.25;;;26.20;99.90;;;;;;5044348;28;20058;-85
2023/06/11 08:49:40;;;;;;;11.45;8.73;;;26.30;99.90;;;;;;5047891;28;20052;-85
2023/06/11 08:52:07;;;;;;;12.10;8.45;;;26.30;99.90;;;;;;5061724;28;20570;-86
2023/06/11 08:54:33;;;;;;;9.07;8.20;;;26.30;99.90;;;;;;5058618;28;20039;-85
2023/06/11 08:56:59;;;;;;;11.20;8.50;;;26.60;1.00;;;;;;5045319;28;20049;-85
2023/06/11 08:59:24;;;;;;;12.48;8.32;;;26.60;99.90;;;;;;5046225;28;20376;-84
2023/06/11 09:01:51;;;;;;;8.93;7.97;;;26.90;99.90;;;;;;5047507;28;20046;-85
2023/06/11 09:04:23;;;;;;;10.27;8.55;;;26.90;99.90;;;;;;5043699;28;20107;-85
2023/06/11 09:06:59;;;;;;;11.48;8.25;;;26.80;1.00;;;;;;5047854;28;20490;-85
2023/06/11 09:09:25;;;;;;;11.52;8.23;;;26.90;99.90;;;;;;5061304;28;20768;-85
2023/06/11 09:11:51;;;;;;;10.25;8.27;;;27.30;99.90;;;;;;5061961;28;20048;-85
2023/06/11 09:14:16;;;;;;;9.98;8.70;;;27.50;99.90;;;;;;5048396;28;20040;-85
2023/06/11 09:16:47;;;;;;;9.32;8.43;;;27.40;99.90;;;;;;5044133;28;20039;-85
2023/06/11 09:19:19;;;;;;;9.68;7.95;;;27.60;99.90;;;;;;5048283;28;20035;-85
2023/06/11 09:21:52;;;;;;;9.02;8.13;;;27.90;99.90;;;;;;5085074;28;20565;-85
2023/06/11 09:24:19;;;;;;;12.05;8.43;;;27.70;1.00;;;;;;5061885;28;20180;-85
2023/06/11 09:26:56;;;;;;;9.50;7.85;;;27.80;1.00;;;;;;5045343;28;20037;-85
2023/06/11 09:29:27;;;;;;;8.68;7.63;;;27.80;1.00;;;;;;5044847;28;20046;-85
2023/06/11 09:32:06;;;;;;;8.93;7.55;;;28.00;99.90;;;;;;5069559;28;20177;-85
2023/06/11 09:34:32;;;;;;;9.63;7.72;;;28.00;99.90;;;;;;5061419;28;20078;-85
2023/06/11 09:36:57;;;;;;;7.72;6.93;;;28.10;99.90;;;;;;5048229;28;20130;-84
2023/06/11 09:39:24;;;;;;;7.78;6.65;;;28.20;99.90;;;;;;5046360;28;20056;-85
2023/06/11 09:41:50;;;;;;;9.98;7.53;;;28.50;62.10;;;;;;5043556;28;20048;-85
2023/06/11 09:44:20;;;;;;;10.27;7.03;;;28.40;1.00;;;;;;5043791;28;20048;-85
2023/06/11 09:46:49;;;;;;;8.45;7.57;;;28.50;1.00;;;;;;5041094;28;20067;-85
2023/06/11 09:49:20;;;;;;;9.82;7.70;;;28.40;99.90;;;;;;5052220;28;20036;-84
2023/06/11 09:51:47;;;;;;;9.55;6.78;;;28.70;99.90;;;;;;5040949;28;20525;-85
2023/06/11 09:54:13;;;;;;;8.18;7.15;;;28.70;99.90;;;;;;5042194;28;20409;-85
2023/06/11 09:56:40;;;;;;;7.78;7.00;;;29.00;99.90;;;;;;5035077;28;20123;-85
2023/06/11 09:59:06;;;;;;;8.93;7.20;;;29.10;99.90;;;;;;5041746;28;20503;-85
2023/06/11 10:01:35;;;;;;;8.10;7.30;;;29.30;99.90;;;;;;5035327;28;20147;-85
2023/06/11 10:04:01;;;;;;;9.32;6.85;;;29.30;99.90;;;;;;5042166;28;20127;-85
2023/06/11 10:06:33;;;;;;;9.93;7.10;;;29.30;99.90;;;;;;5041834;28;20139;-86
2023/06/11 10:09:03;;;;;;;7.55;6.85;;;29.70;99.90;;;;;;5056899;28;20121;-85
2023/06/11 10:11:38;;;;;;;9.15;7.00;;;29.40;99.90;;;;;;5054257;28;20044;-85
2023/06/11 10:14:12;;;;;;;8.00;7.20;;;29.60;99.90;;;;;;5040078;28;20044;-85
2023/06/11 10:16:38;;;;;;;7.70;6.90;;;29.70;99.90;;;;;;5042185;28;20044;-86
2023/06/11 10:19:10;;;;;;;11.35;6.85;;;29.80;99.90;;;;;;5059994;28;20043;-85
2023/06/11 10:21:40;;;;;;;9.57;6.90;;;29.90;99.90;;;;;;5060529;28;20042;-85
2023/06/11 10:24:26;;;;;;;7.38;6.68;;;29.80;59.30;;;;;;5067321;28;20386;-85
2023/06/11 10:27:08;;;;;;;7.88;6.97;;;29.70;93.40;;;;;;5050740;28;20048;-85
2023/06/11 10:29:45;;;;;;;10.23;7.15;;;29.90;25.20;;;;;;5048995;28;20051;-85
2023/06/11 10:32:21;;;;;;;10.95;7.20;;;29.90;1.00;;;;;;5062061;28;20461;-85
2023/06/11 10:34:55;;;;;;;8.48;5.90;;;29.60;1.00;;;;;;5064747;28;20268;-85
2023/06/11 10:37:32;;;;;;;9.10;6.53;;;30.10;1.00;;;;;;5049607;28;20048;-85
2023/06/11 10:39:59;;;;;;;9.10;6.82;;;29.90;1.00;;;;;;5051716;28;20063;-85
2023/06/11 10:42:27;;;;;;;7.20;6.32;;;30.00;1.00;;;;;;5062649;28;20118;-85
2023/06/11 10:45:00;;;;;;;8.20;6.60;;;30.30;1.00;;;;;;5081509;28;20029;-84
2023/06/11 10:47:28;;;;;;;7.55;6.68;;;29.80;99.90;;;;;;5049808;28;20139;-84
2023/06/11 10:50:08;;;;;;;9.15;6.40;;;30.20;1.00;;;;;;5049788;28;20045;-85
2023/06/11 10:52:55;;;;;;;9.07;6.60;;;30.60;1.00;;;;;;5049081;28;20039;-84
2023/06/11 10:55:24;;;;;;;7.25;6.00;;;30.40;99.90;;;;;;5046336;28;20044;-82
2023/06/11 10:57:53;;;;;;;8.40;6.20;;;30.70;99.90;;;;;;5050318;28;20047;-83
2023/06/11 11:00:20;;;;;;;9.07;6.65;;;31.10;99.90;;;;;;5066534;28;20051;-84
2023/06/11 11:02:46;;;;;;;8.65;6.25;;;30.90;99.90;;;;;;5061376;28;20475;-83
2023/06/11 11:05:12;;;;;;;8.65;6.20;;;31.20;99.90;;;;;;5052864;28;20093;-83
2023/06/11 11:07:38;;;;;;;7.07;5.97;;;31.20;99.90;;;;;;5050610;28;20534;-83
2023/06/11 11:10:07;;;;;;;6.60;5.88;;;31.30;99.90;;;;;;5049546;28;20469;-83
2023/06/11 11:12:44;;;;;;;13.35;5.72;;;30.90;99.90;;;;;;5084802;28;20043;-83
2023/06/11 11:15:13;;;;;;;7.43;5.95;;;31.40;99.90;;;;;;5046797;28;20175;-83
2023/06/11 11:17:40;;;;;;;6.00;5.47;;;31.60;99.90;;;;;;5081684;28;20105;-83
2023/06/11 11:20:07;;;;;;;6.32;5.50;;;31.10;99.90;;;;;;5047533;28;20081;-83
2023/06/11 11:22:34;;;;;;;7.78;5.45;;;31.50;99.90;;;;;;5065683;28;20045;-83
2023/06/11 11:25:01;;;;;;;6.80;5.13;;;31.60;99.90;;;;;;5045288;28;20126;-83
2023/06/11 11:27:30;;;;;;;6.50;5.07;;;31.80;99.90;;;;;;5045766;28;20036;-82
2023/06/11 11:29:57;;;;;;;5.70;5.20;;;31.90;99.90;;;;;;5047653;28;20066;-82
2023/06/11 11:32:32;;;;;;;6.28;5.13;;;31.80;99.90;;;;;;5061468;28;20572;-83
2023/06/11 11:34:59;;;;;;;8.43;5.78;;;32.00;99.90;;;;;;5064659;28;20515;-83
2023/06/11 11:37:29;;;;;;;7.90;5.30;;;31.70;99.90;;;;;;5066032;28;20032;-83
2023/06/11 11:39:55;;;;;;;6.15;5.43;;;31.80;99.90;;;;;;5044224;28;20685;-83
2023/06/11 11:42:22;;;;;;;5.82;5.32;;;31.90;99.90;;;;;;5055487;28;20041;-83
2023/06/11 11:44:50;;;;;;;6.82;4.95;;;31.70;99.90;;;;;;5085025;28;20082;-83
2023/06/11 11:47:20;;;;;;;5.10;4.60;;;32.20;99.90;;;;;;5055309;28;20364;-83
2023/06/11 11:49:56;;;;;;;9.15;5.47;;;32.40;99.90;;;;;;5039006;28;20048;-83
2023/06/11 11:52:23;;;;;;;6.05;4.78;;;32.00;99.90;;;;;;5068994;28;20040;-83
2023/06/11 11:54:49;;;;;;;6.18;5.10;;;32.70;99.90;;;;;;5043149;28;20045;-83
2023/06/11 11:57:22;;;;;;;5.78;5.28;;;32.60;91.80;;;;;;5043979;28;20040;-83
2023/06/11 11:59:53;;;;;;;5.93;5.10;;;32.40;48.70;;;;;;5045440;28;20242;-83
2023/06/11 12:02:26;;;;;;;7.78;5.43;;;32.90;63.10;;;;;;5064945;28;20166;-83
2023/06/11 12:04:52;;;;;;;8.20;5.38;;;32.90;29.90;;;;;;5059925;28;20048;-83
2023/06/11 12:07:21;;;;;;;6.22;5.30;;;32.50;2.90;;;;;;5046130;28;20122;-83
2023/06/11 12:09:50;;;;;;;9.02;5.38;;;32.60;1.00;;;;;;5044523;28;20047;-82
2023/06/11 12:12:16;;;;;;;9.32;5.20;;;32.60;1.00;;;;;;5039640;28;20048;-83
2023/06/11 12:14:41;;;;;;;9.50;5.40;;;33.20;1.00;;;;;;5043278;28;20047;-83
2023/06/11 12:17:10;;;;;;;7.15;5.55;;;32.70;1.00;;;;;;5057880;28;20438;-83
2023/06/11 12:19:37;;;;;;;6.50;5.32;;;32.60;1.00;;;;;;5041326;28;20314;-84
2023/06/11 12:22:05;;;;;;;8.82;5.22;;;33.20;1.00;;;;;;5056434;28;20330;-83
2023/06/11 12:24:32;;;;;;;6.45;5.32;;;33.50;1.00;;;;;;5058854;28;20036;-83
2023/06/11 12:26:59;;;;;;;10.48;5.28;;;33.90;1.00;;;;;;5054954;28;20144;-84
2023/06/11 12:29:25;;;;;;;9.48;5.50;;;33.90;1.00;;;;;;5040832;28;20036;-83
2023/06/11 12:31:50;;;;;;;7.30;5.20;;;34.00;1.00;;;;;;5069051;28;20044;-83
2023/06/11 12:34:16;;;;;;;10.10;5.25;;;32.30;1.00;;;;;;5042402;28;20055;-84
2023/06/11 12:36:43;;;;;;;7.50;5.20;;;31.70;1.00;;;;;;5067252;28;20501;-84
2023/06/11 12:39:10;;;;;;;8.27;5.18;;;31.90;1.00;;;;;;5040464;28;20094;-83
2023/06/11 12:41:36;;;;;;;6.75;5.40;;;32.60;1.00;;;;;;5059647;28;20357;-83